sensor_id;sensor_type;location;lat;lon;timestamp;P1;durP1;ratioP1;P2;durP2;ratioP2
29344;SDS011;16339;48.748;2.222;2023-08-17T00:11:25;10.87;;;6.80;;
29344;SDS011;16339;48.748;2.222;2023-08-17T00:14:15;11.25;;;7.07;;
29344;SDS011;16339;48.748;2.222;2023-08-17T00:16:58;13.73;;;6.90;;
29344;SDS011;16339;48.748;2.222;2023-08-17T00:19:55;14.05;;;7.03;;
29344;SDS011;16339;48.748;2.222;2023-08-17T00:22:53;10.35;;;7.07;;
29344;SDS011;16339;48.748;2.222;2023-08-17T00:25:51;15.52;;;7.53;;
29344;SDS011;16339;48.748;2.222;2023-08-17T00:28:33;14.82;;;7.22;;
29344;SDS011;16339;48.748;2.222;2023-08-17T00:31:29;14.95;;;8.48;;
29344;SDS011;16339;48.748;2.222;2023-08-17T00:34:09;14.93;;;7.93;;
29344;SDS011;16339;48.748;2.222;2023-08-17T00:37:03;11.95;;;8.20;;
29344;SDS011;16339;48.748;2.222;2023-08-17T00:46:28;18.08;;;8.07;;
29344;SDS011;16339;48.748;2.222;2023-08-17T00:49:46;11.40;;;7.63;;
29344;SDS011;16339;48.748;2.222;2023-08-17T00:53:20;15.85;;;7.75;;
29344;SDS011;16339;48.748;2.222;2023-08-17T00:57:41;17.75;;;8.30;;
29344;SDS011;16339;48.748;2.222;2023-08-17T01:19:54;13.90;;;7.85;;
29344;SDS011;16339;48.748;2.222;2023-08-17T02:09:17;13.15;;;8.85;;
29344;SDS011;16339;48.748;2.222;2023-08-17T02:15:37;16.42;;;9.32;;
29344;SDS011;16339;48.748;2.222;2023-08-17T02:18:24;16.92;;;9.30;;
29344;SDS011;16339;48.748;2.222;2023-08-17T03:10:30;27.30;;;15.10;;
29344;SDS011;16339;48.748;2.222;2023-08-17T03:31:26;17.38;;;11.60;;
29344;SDS011;16339;48.748;2.222;2023-08-17T03:34:50;19.67;;;11.37;;
29344;SDS011;16339;48.748;2.222;2023-08-17T03:37:46;19.77;;;11.40;;
29344;SDS011;16339;48.748;2.222;2023-08-17T03:47:53;23.83;;;14.93;;
29344;SDS011;16339;48.748;2.222;2023-08-17T04:42:15;25.30;;;14.82;;
29344;SDS011;16339;48.748;2.222;2023-08-17T04:45:40;26.00;;;14.02;;
29344;SDS011;16339;48.748;2.222;2023-08-17T04:48:17;19.35;;;13.15;;
29344;SDS011;16339;48.748;2.222;2023-08-17T05:18:13;26.45;;;16.50;;
29344;SDS011;16339;48.748;2.222;2023-08-17T05:20:57;23.98;;;15.70;;
29344;SDS011;16339;48.748;2.222;2023-08-17T05:47:32;27.70;;;16.02;;
29344;SDS011;16339;48.748;2.222;2023-08-17T05:50:16;35.00;;;17.00;;
29344;SDS011;16339;48.748;2.222;2023-08-17T05:53:11;40.67;;;18.83;;
29344;SDS011;16339;48.748;2.222;2023-08-17T05:59:02;36.47;;;20.02;;
29344;SDS011;16339;48.748;2.222;2023-08-17T06:01:51;37.13;;;19.92;;
29344;SDS011;16339;48.748;2.222;2023-08-17T06:04:38;43.97;;;20.52;;
29344;SDS011;16339;48.748;2.222;2023-08-17T06:07:16;31.27;;;19.42;;
29344;SDS011;16339;48.748;2.222;2023-08-17T06:51:42;44.95;;;21.15;;
29344;SDS011;16339;48.748;2.222;2023-08-17T06:54:57;34.00;;;19.02;;
29344;SDS011;16339;48.748;2.222;2023-08-17T06:57:36;32.80;;;18.45;;
29344;SDS011;16339;48.748;2.222;2023-08-17T07:00:23;32.22;;;17.17;;
29344;SDS011;16339;48.748;2.222;2023-08-17T07:03:20;43.20;;;17.70;;
29344;SDS011;16339;48.748;2.222;2023-08-17T07:05:50;29.60;;;18.35;;
29344;SDS011;16339;48.748;2.222;2023-08-17T07:08:21;33.40;;;18.67;;
29344;SDS011;16339;48.748;2.222;2023-08-17T07:10:50;31.15;;;19.83;;
29344;SDS011;16339;48.748;2.222;2023-08-17T07:13:18;31.52;;;20.08;;
29344;SDS011;16339;48.748;2.222;2023-08-17T07:15:47;36.85;;;21.75;;
29344;SDS011;16339;48.748;2.222;2023-08-17T07:18:16;37.53;;;20.25;;
29344;SDS011;16339;48.748;2.222;2023-08-17T07:20:45;38.72;;;23.83;;
29344;SDS011;16339;48.748;2.222;2023-08-17T07:23:14;36.90;;;22.52;;
29344;SDS011;16339;48.748;2.222;2023-08-17T07:25:45;40.63;;;23.27;;
29344;SDS011;16339;48.748;2.222;2023-08-17T07:30:42;39.80;;;22.80;;
29344;SDS011;16339;48.748;2.222;2023-08-17T07:33:11;42.33;;;24.67;;
29344;SDS011;16339;48.748;2.222;2023-08-17T07:35:40;43.03;;;22.92;;
29344;SDS011;16339;48.748;2.222;2023-08-17T07:38:09;39.28;;;24.23;;
29344;SDS011;16339;48.748;2.222;2023-08-17T07:40:37;46.38;;;26.23;;
29344;SDS011;16339;48.748;2.222;2023-08-17T07:43:10;47.10;;;27.23;;
